Time;durP1;ratioP1;P1;durP2;ratioP2;P2;SDS_P1;SDS_P2;PMS_P1;PMS_P2;Temp;Humidity;BMP_temperature;BMP_pressure;BME280_temperature;BME280_humidity;BME280_pressure;Samples;Min_cycle;Max_cycle;Signal;HPM_P1;HPM_P2
2021/10/26 00:02:01;;;;;;;11.57;9.10;;;23.00;37.00;;;;;;4783793;29;20150;-53
2021/10/26 00:04:28;;;;;;;11.63;9.10;;;23.00;37.00;;;;;;4782508;30;20057;-55
2021/10/26 00:06:55;;;;;;;13.02;9.57;;;23.00;37.00;;;;;;4784246;29;20062;-55
2021/10/26 00:09:23;;;;;;;12.45;9.60;;;23.00;37.10;;;;;;4765091;29;20150;-54
2021/10/26 00:11:50;;;;;;;14.93;10.50;;;23.00;37.10;;;;;;4783902;29;20065;-55
2021/10/26 00:14:18;;;;;;;12.95;9.30;;;23.00;37.10;;;;;;4783877;29;20538;-55
2021/10/26 00:16:45;;;;;;;15.50;9.52;;;23.00;37.10;;;;;;4781979;29;20378;-55
2021/10/26 00:19:12;;;;;;;11.20;9.05;;;23.00;37.10;;;;;;4767976;29;20074;-54
2021/10/26 00:21:39;;;;;;;12.57;10.13;;;23.00;37.10;;;;;;4785160;29;20051;-56
2021/10/26 00:24:07;;;;;;;12.70;9.90;;;22.90;37.00;;;;;;4784166;30;20147;-55
2021/10/26 00:26:34;;;;;;;13.20;9.48;;;22.90;37.10;;;;;;4784922;29;20089;-54
2021/10/26 00:29:02;;;;;;;14.20;10.35;;;22.90;37.00;;;;;;4768319;29;20146;-55
2021/10/26 00:31:29;;;;;;;10.80;9.18;;;22.90;37.00;;;;;;4784874;29;20142;-55
2021/10/26 00:33:57;;;;;;;13.60;10.18;;;22.90;37.00;;;;;;4785503;29;20421;-54
2021/10/26 00:36:24;;;;;;;12.00;9.45;;;22.90;37.00;;;;;;4785213;29;20471;-53
2021/10/26 00:38:51;;;;;;;11.40;8.98;;;22.90;37.00;;;;;;4771944;29;20146;-52
2021/10/26 00:41:19;;;;;;;12.30;9.40;;;22.90;37.00;;;;;;4777912;29;20059;-54
2021/10/26 00:43:47;;;;;;;12.18;9.73;;;22.90;37.00;;;;;;4782306;29;20118;-55
2021/10/26 00:46:29;;;;;;;11.30;8.80;;;22.90;37.00;;;;;;4783185;29;20421;-55
2021/10/26 00:48:59;;;;;;;10.25;8.30;;;22.90;37.10;;;;;;4765527;29;20086;-52
2021/10/26 00:51:28;;;;;;;13.52;10.23;;;22.90;37.20;;;;;;4782541;29;20067;-55
2021/10/26 00:53:57;;;;;;;12.60;9.00;;;22.90;37.10;;;;;;4783545;29;20059;-55
2021/10/26 00:56:25;;;;;;;13.68;10.13;;;22.90;37.20;;;;;;4782603;29;20051;-55
2021/10/26 00:58:52;;;;;;;12.75;10.23;;;22.90;37.20;;;;;;4769391;29;20462;-54
2021/10/26 01:01:20;;;;;;;10.70;8.68;;;22.90;37.20;;;;;;4780150;29;20081;-54
2021/10/26 01:03:47;;;;;;;12.45;9.73;;;22.90;37.20;;;;;;4783072;29;20443;-54
2021/10/26 01:06:15;;;;;;;11.10;8.57;;;22.90;37.20;;;;;;4781314;29;20104;-57
2021/10/26 01:08:43;;;;;;;12.73;9.05;;;22.90;37.10;;;;;;4769445;29;20981;-54
2021/10/26 01:11:10;;;;;;;14.88;9.82;;;22.90;37.20;;;;;;4778082;29;20574;-54
2021/10/26 01:13:38;;;;;;;13.35;10.32;;;22.90;37.10;;;;;;4782298;29;20417;-54
2021/10/26 01:16:06;;;;;;;12.68;9.90;;;22.90;37.10;;;;;;4782201;29;20087;-55
2021/10/26 01:18:34;;;;;;;11.35;9.30;;;22.90;37.10;;;;;;4769964;29;20500;-55
2021/10/26 01:21:01;;;;;;;12.07;9.48;;;22.90;37.10;;;;;;4775854;29;20109;-55
2021/10/26 01:23:28;;;;;;;13.20;9.93;;;22.90;37.10;;;;;;4781665;30;20063;-54
2021/10/26 01:25:56;;;;;;;11.65;9.52;;;22.90;37.10;;;;;;4782307;29;20070;-56
2021/10/26 01:28:23;;;;;;;11.57;9.50;;;22.80;37.10;;;;;;4769939;29;20112;-53
2021/10/26 01:30:51;;;;;;;13.55;9.88;;;22.80;37.10;;;;;;4776838;29;20526;-55
2021/10/26 01:33:18;;;;;;;11.98;8.80;;;22.90;37.20;;;;;;4782840;29;20060;-55
2021/10/26 01:35:46;;;;;;;12.73;9.85;;;22.80;37.10;;;;;;4783843;29;20044;-54
2021/10/26 01:38:13;;;;;;;12.65;9.50;;;22.90;37.20;;;;;;4773129;29;20063;-55
2021/10/26 01:40:40;;;;;;;10.88;8.98;;;22.90;37.20;;;;;;4774175;29;20054;-55
2021/10/26 01:43:08;;;;;;;12.85;9.68;;;22.80;37.10;;;;;;4782426;29;20490;-55
2021/10/26 01:45:35;;;;;;;12.00;9.27;;;22.80;37.10;;;;;;4781773;29;20082;-55
2021/10/26 01:48:02;;;;;;;12.57;9.25;;;22.80;37.10;;;;;;4773916;29;20044;-55
2021/10/26 01:50:30;;;;;;;11.55;9.23;;;22.80;37.10;;;;;;4771430;29;20051;-55
2021/10/26 01:52:57;;;;;;;11.68;9.15;;;22.80;37.20;;;;;;4782619;29;20047;-55
2021/10/26 01:55:24;;;;;;;11.63;8.68;;;22.80;37.20;;;;;;4781815;29;20059;-55
2021/10/26 01:57:52;;;;;;;12.55;8.80;;;22.80;37.10;;;;;;4773548;29;20567;-55
2021/10/26 02:00:21;;;;;;;12.73;9.48;;;22.80;37.20;;;;;;4771480;29;20055;-53
2021/10/26 02:02:50;;;;;;;13.13;9.05;;;22.80;37.10;;;;;;4781486;29;20062;-52
2021/10/26 02:05:18;;;;;;;11.27;8.73;;;22.80;37.10;;;;;;4782388;29;20092;-54
2021/10/26 02:07:46;;;;;;;11.60;9.20;;;22.80;37.20;;;;;;4772276;29;20468;-55
2021/10/26 02:10:15;;;;;;;11.38;9.15;;;22.80;37.10;;;;;;4771141;29;20510;-55
2021/10/26 02:12:43;;;;;;;11.97;9.50;;;22.80;37.10;;;;;;4781821;29;20115;-54
2021/10/26 02:15:10;;;;;;;11.35;8.38;;;22.80;37.10;;;;;;4781534;29;20059;-56
2021/10/26 02:17:37;;;;;;;10.02;8.38;;;22.80;37.10;;;;;;4776988;29;20505;-56
2021/10/26 02:20:06;;;;;;;9.13;8.13;;;22.80;37.10;;;;;;4769926;30;20509;-53
2021/10/26 02:22:33;;;;;;;11.30;8.80;;;22.80;37.10;;;;;;4781677;29;20120;-54
2021/10/26 02:25:00;;;;;;;12.63;9.50;;;22.80;37.10;;;;;;4781978;29;20135;-56
2021/10/26 02:27:27;;;;;;;11.15;9.15;;;22.80;37.10;;;;;;4780005;29;20051;-53
2021/10/26 02:29:55;;;;;;;10.63;8.65;;;22.80;37.10;;;;;;4766288;29;20055;-55
2021/10/26 02:32:22;;;;;;;12.02;8.48;;;22.80;37.10;;;;;;4781566;29;20147;-55
2021/10/26 02:34:49;;;;;;;11.18;8.13;;;22.80;37.10;;;;;;4781548;29;20054;-55
2021/10/26 02:37:16;;;;;;;11.40;8.93;;;22.80;37.10;;;;;;4781397;29;20097;-55
2021/10/26 02:39:43;;;;;;;12.13;9.00;;;22.80;37.20;;;;;;4761750;30;20108;-53
2021/10/26 02:42:10;;;;;;;13.30;9.30;;;22.80;37.10;;;;;;4780191;29;20118;-56
2021/10/26 02:44:38;;;;;;;11.50;8.35;;;22.80;37.20;;;;;;4781351;29;20116;-54
2021/10/26 02:47:05;;;;;;;9.70;8.02;;;22.80;37.10;;;;;;4781471;29;20083;-54
2021/10/26 02:49:32;;;;;;;10.88;7.90;;;22.80;37.20;;;;;;4763104;29;20063;-55
2021/10/26 02:51:59;;;;;;;10.93;8.13;;;22.70;37.10;;;;;;4780092;29;20059;-55
2021/10/26 02:54:28;;;;;;;10.60;8.35;;;22.80;37.10;;;;;;4782167;29;20059;-52
2021/10/26 02:56:55;;;;;;;9.10;7.90;;;22.80;37.10;;;;;;4781153;29;20112;-53
2021/10/26 02:59:24;;;;;;;10.00;8.05;;;22.80;37.10;;;;;;4763387;29;20063;-54
2021/10/26 03:01:51;;;;;;;10.37;8.67;;;22.80;37.10;;;;;;4781105;29;20059;-55
2021/10/26 03:04:19;;;;;;;10.48;8.57;;;22.80;37.10;;;;;;4781571;29;20052;-55
2021/10/26 03:06:46;;;;;;;10.50;8.60;;;22.80;37.10;;;;;;4782222;29;20055;-54
2021/10/26 03:09:14;;;;;;;11.32;8.77;;;22.80;37.10;;;;;;4766193;29;20063;-56
2021/10/26 03:11:41;;;;;;;12.13;8.20;;;22.80;37.10;;;;;;4784722;29;20498;-55
2021/10/26 03:14:09;;;;;;;10.00;8.13;;;22.80;37.00;;;;;;4784219;29;20058;-55
2021/10/26 03:16:36;;;;;;;9.50;8.20;;;22.80;37.10;;;;;;4783295;29;20579;-54
2021/10/26 03:19:05;;;;;;;10.25;8.10;;;22.70;37.10;;;;;;4766830;29;20417;-55
2021/10/26 03:21:37;;;;;;;13.70;8.02;;;22.70;37.10;;;;;;4784080;29;20051;-55
2021/10/26 03:24:05;;;;;;;8.63;7.55;;;22.70;37.10;;;;;;4784997;29;20112;-55
2021/10/26 03:26:33;;;;;;;10.65;8.45;;;22.70;37.10;;;;;;4784254;29;20508;-53
2021/10/26 03:29:00;;;;;;;10.82;8.23;;;22.70;37.10;;;;;;4766374;29;20082;-55
2021/10/26 03:31:27;;;;;;;9.18;7.38;;;22.70;37.10;;;;;;4784384;29;20055;-54
2021/10/26 03:33:54;;;;;;;9.73;7.53;;;22.70;37.70;;;;;;4778727;30;20057;-55
2021/10/26 03:36:22;;;;;;;10.60;7.97;;;22.70;37.10;;;;;;4783126;29;20339;-56
2021/10/26 03:38:51;;;;;;;11.90;8.63;;;22.70;37.10;;;;;;4770334;29;20055;-54
2021/10/26 03:41:18;;;;;;;10.38;7.40;;;22.70;37.10;;;;;;4781677;29;20055;-55
2021/10/26 03:43:45;;;;;;;9.82;7.55;;;22.70;37.10;;;;;;4783192;30;20051;-56
2021/10/26 03:46:14;;;;;;;10.32;7.50;;;22.70;37.10;;;;;;4782006;29;20047;-55
2021/10/26 03:48:42;;;;;;;10.82;8.27;;;22.70;37.10;;;;;;4771478;29;20065;-55
2021/10/26 03:51:09;;;;;;;9.35;7.40;;;22.70;37.10;;;;;;4778616;29;20071;-54
2021/10/26 03:53:37;;;;;;;10.50;7.95;;;22.70;37.10;;;;;;4784418;29;20498;-54
2021/10/26 03:56:05;;;;;;;9.23;7.45;;;22.70;37.10;;;;;;4784370;29;20066;-55
2021/10/26 03:58:34;;;;;;;8.73;7.38;;;22.70;37.10;;;;;;4771640;29;20120;-56
2021/10/26 04:01:01;;;;;;;8.52;7.25;;;22.70;37.10;;;;;;4777366;29;20263;-55
2021/10/26 04:03:29;;;;;;;9.48;7.03;;;22.70;37.10;;;;;;4783168;29;20071;-55
2021/10/26 04:06:02;;;;;;;8.38;7.47;;;22.70;37.10;;;;;;4783966;29;20063;-55
2021/10/26 04:08:48;;;;;;;9.65;7.30;;;22.70;37.10;;;;;;4781809;29;20506;-54
2021/10/26 04:11:22;;;;;;;10.98;8.05;;;22.60;37.00;;;;;;4778181;29;20090;-55
2021/10/26 04:13:50;;;;;;;8.18;6.57;;;22.70;37.10;;;;;;4780686;29;20066;-56
2021/10/26 04:16:19;;;;;;;8.43;7.20;;;22.60;37.10;;;;;;4777306;29;20051;-54
2021/10/26 04:18:46;;;;;;;9.43;7.78;;;22.60;37.10;;;;;;4770705;29;20074;-54
2021/10/26 04:21:16;;;;;;;10.13;7.57;;;22.60;37.10;;;;;;4778569;29;20138;-55
2021/10/26 04:23:46;;;;;;;9.60;7.85;;;22.60;37.10;;;;;;4783830;29;20055;-55
2021/10/26 04:26:15;;;;;;;7.68;6.63;;;22.60;37.10;;;;;;4783136;29;20059;-56
2021/10/26 04:28:43;;;;;;;7.10;5.97;;;22.60;37.00;;;;;;4770768;29;20071;-56
2021/10/26 04:31:11;;;;;;;7.55;6.57;;;22.60;37.10;;;;;;4778241;29;20236;-54
2021/10/26 04:33:38;;;;;;;9.00;7.35;;;22.70;37.10;;;;;;4782641;29;20108;-56
2021/10/26 04:36:05;;;;;;;7.85;6.40;;;22.60;37.00;;;;;;4783573;29;20125;-55
2021/10/26 04:38:32;;;;;;;9.10;7.18;;;22.60;37.00;;;;;;4770377;29;20818;-55
2021/10/26 04:41:02;;;;;;;8.35;6.68;;;22.60;37.00;;;;;;4776856;29;20112;-55
2021/10/26 04:43:29;;;;;;;8.30;6.63;;;22.60;37.00;;;;;;4773868;29;20495;-55
2021/10/26 04:45:56;;;;;;;10.23;7.57;;;22.60;37.00;;;;;;4774283;30;20147;-56
2021/10/26 04:48:24;;;;;;;8.18;6.88;;;22.60;37.10;;;;;;4760716;29;20055;-55
2021/10/26 04:50:52;;;;;;;9.27;7.65;;;22.60;37.10;;;;;;4767156;30;20059;-55
2021/10/26 04:53:22;;;;;;;9.65;6.90;;;22.60;37.10;;;;;;4773849;29;20055;-54
2021/10/26 04:55:49;;;;;;;8.73;6.90;;;22.60;37.10;;;;;;4778358;30;20063;-55
2021/10/26 04:58:17;;;;;;;8.38;6.60;;;22.50;37.10;;;;;;4766769;29;20055;-54
2021/10/26 05:00:44;;;;;;;7.60;6.30;;;22.60;37.10;;;;;;4768648;30;20058;-52
2021/10/26 05:03:12;;;;;;;9.82;6.65;;;22.50;37.00;;;;;;4773813;30;20062;-54
2021/10/26 05:05:39;;;;;;;9.68;7.40;;;22.50;37.00;;;;;;4776415;30;20516;-56
2021/10/26 05:08:06;;;;;;;8.85;6.70;;;22.60;36.70;;;;;;4772858;29;20498;-55
2021/10/26 05:10:34;;;;;;;7.40;6.50;;;22.50;36.30;;;;;;4751964;30;20051;-55
2021/10/26 05:13:01;;;;;;;8.98;6.88;;;22.60;36.20;;;;;;4775919;29;20398;-54
2021/10/26 05:15:29;;;;;;;8.27;6.85;;;22.60;36.00;;;;;;4777347;29;20816;-55
2021/10/26 05:17:57;;;;;;;8.80;6.63;;;22.60;35.90;;;;;;4772439;29;20104;-55
2021/10/26 05:20:25;;;;;;;9.27;7.35;;;22.60;35.70;;;;;;4768774;29;20047;-55
2021/10/26 05:22:55;;;;;;;7.78;6.93;;;22.60;35.70;;;;;;4775141;29;20476;-55
2021/10/26 05:25:22;;;;;;;7.15;6.07;;;22.60;35.80;;;;;;4778856;29;20125;-55
2021/10/26 05:27:49;;;;;;;8.00;6.93;;;22.60;35.90;;;;;;4770007;29;20054;-53
2021/10/26 05:30:16;;;;;;;7.40;5.82;;;22.60;35.90;;;;;;4765672;29;20055;-56
2021/10/26 05:32:44;;;;;;;7.55;5.93;;;22.60;35.80;;;;;;4777522;29;20048;-55
2021/10/26 05:35:11;;;;;;;9.05;6.50;;;22.60;35.80;;;;;;4773942;30;20105;-56
2021/10/26 05:37:38;;;;;;;6.82;5.93;;;22.60;35.80;;;;;;4771832;29;20051;-57
2021/10/26 05:40:06;;;;;;;9.45;6.38;;;22.60;35.70;;;;;;4757791;29;20124;-55
2021/10/26 05:42:34;;;;;;;10.27;6.45;;;22.70;35.70;;;;;;4770183;29;20058;-55
2021/10/26 05:45:03;;;;;;;7.30;5.90;;;22.60;35.70;;;;;;4778053;29;20078;-56
2021/10/26 05:47:30;;;;;;;8.80;6.65;;;22.60;35.70;;;;;;4768260;29;20051;-56
2021/10/26 05:49:57;;;;;;;10.02;6.50;;;22.70;35.80;;;;;;4756653;29;20055;-54
2021/10/26 05:52:25;;;;;;;9.07;6.15;;;22.70;36.00;;;;;;4774159;30;20055;-56
2021/10/26 05:54:52;;;;;;;8.13;5.95;;;22.70;36.10;;;;;;4772611;29;20063;-56
2021/10/26 05:57:19;;;;;;;8.45;6.38;;;22.70;36.30;;;;;;4774798;30;20048;-54
2021/10/26 05:59:46;;;;;;;13.95;7.30;;;22.70;36.40;;;;;;4750824;29;20124;-57
2021/10/26 06:02:14;;;;;;;7.80;6.18;;;22.70;36.40;;;;;;4775738;29;20056;-57
2021/10/26 06:04:41;;;;;;;9.00;7.28;;;22.70;36.40;;;;;;4771123;29;20058;-51
2021/10/26 06:07:08;;;;;;;9.43;6.53;;;22.80;36.40;;;;;;4775493;29;20055;-56
2021/10/26 06:09:35;;;;;;;10.43;7.15;;;22.80;36.50;;;;;;4760417;29;20062;-53
2021/10/26 06:12:05;;;;;;;8.93;7.05;;;22.80;36.50;;;;;;4768713;29;20063;-60
2021/10/26 06:14:32;;;;;;;10.63;7.40;;;22.80;36.40;;;;;;4775540;29;20425;-55
2021/10/26 06:17:01;;;;;;;11.32;7.80;;;22.80;36.30;;;;;;4778634;29;20058;-57
2021/10/26 06:19:28;;;;;;;10.77;7.90;;;22.90;36.10;;;;;;4756822;29;20118;-56
2021/10/26 06:21:56;;;;;;;15.23;8.52;;;23.00;36.00;;;;;;4773475;29;20530;-54
2021/10/26 06:24:23;;;;;;;10.10;7.70;;;23.00;35.80;;;;;;4773338;29;20055;-55
2021/10/26 06:26:50;;;;;;;11.10;7.40;;;23.00;35.70;;;;;;4771559;30;20063;-55
2021/10/26 06:29:18;;;;;;;11.50;7.50;;;23.10;35.70;;;;;;4758952;29;20060;-55
2021/10/26 06:31:45;;;;;;;9.20;6.97;;;23.10;35.60;;;;;;4769654;30;20678;-55
2021/10/26 06:34:12;;;;;;;10.43;7.55;;;23.20;35.60;;;;;;4775888;29;20502;-55
2021/10/26 06:36:39;;;;;;;9.50;7.40;;;23.20;35.60;;;;;;4776841;29;20056;-52
2021/10/26 06:39:07;;;;;;;10.63;7.90;;;23.20;35.50;;;;;;4760605;29;20051;-52
2021/10/26 06:41:34;;;;;;;12.45;8.15;;;23.20;35.60;;;;;;4765832;29;20070;-52
2021/10/26 06:44:02;;;;;;;10.35;8.32;;;23.30;35.70;;;;;;4774582;30;20090;-55
2021/10/26 06:46:30;;;;;;;10.73;7.93;;;23.30;35.60;;;;;;4779131;29;20449;-52
2021/10/26 06:48:58;;;;;;;11.93;8.95;;;23.40;35.60;;;;;;4761161;29;20116;-58
2021/10/26 06:51:25;;;;;;;12.60;9.18;;;23.40;35.60;;;;;;4768894;29;20051;-57
2021/10/26 06:53:53;;;;;;;10.50;8.55;;;23.40;35.60;;;;;;4772966;29;20051;-59
2021/10/26 06:56:21;;;;;;;14.10;9.63;;;23.50;35.60;;;;;;4776260;29;20160;-55
2021/10/26 06:58:48;;;;;;;11.93;8.23;;;23.50;35.50;;;;;;4763070;29;20067;-57
2021/10/26 07:01:15;;;;;;;12.57;8.23;;;23.50;35.20;;;;;;4767149;29;20136;-57
2021/10/26 07:03:43;;;;;;;9.88;8.32;;;23.50;35.10;;;;;;4775483;30;20140;-57
2021/10/26 07:06:10;;;;;;;10.68;8.55;;;23.60;35.10;;;;;;4774545;30;20399;-57
2021/10/26 07:08:39;;;;;;;11.07;8.13;;;23.60;35.00;;;;;;4768939;29;20108;-55
2021/10/26 07:11:07;;;;;;;10.80;8.77;;;23.60;34.90;;;;;;4764506;30;20060;-54
2021/10/26 07:13:38;;;;;;;14.85;8.65;;;23.60;34.80;;;;;;4778511;29;21945;-54
2021/10/26 07:16:07;;;;;;;12.88;8.40;;;23.60;34.80;;;;;;4775064;30;20059;-55
2021/10/26 07:18:35;;;;;;;11.63;8.57;;;23.60;34.80;;;;;;4764143;29;20494;-55
2021/10/26 07:21:02;;;;;;;14.80;8.65;;;23.70;34.80;;;;;;4769571;29;20063;-56
2021/10/26 07:23:31;;;;;;;9.85;7.80;;;23.70;34.80;;;;;;4771348;29;20063;-58
2021/10/26 07:25:58;;;;;;;11.00;8.95;;;23.70;35.00;;;;;;4773779;29;20116;-55
2021/10/26 07:28:25;;;;;;;11.48;8.93;;;23.70;34.80;;;;;;4760155;29;20055;-58
2021/10/26 07:30:52;;;;;;;12.82;8.60;;;23.80;34.70;;;;;;4764307;30;20063;-58
2021/10/26 07:33:25;;;;;;;10.18;7.90;;;23.80;34.90;;;;;;4770894;29;20055;-59
2021/10/26 07:35:55;;;;;;;11.13;8.82;;;23.80;34.70;;;;;;4773251;29;20086;-59
2021/10/26 07:38:29;;;;;;;17.73;9.07;;;23.80;34.80;;;;;;4763858;29;20089;-59
2021/10/26 07:41:00;;;;;;;9.70;7.78;;;23.80;34.70;;;;;;4760024;30;20059;-55
2021/10/26 07:43:29;;;;;;;10.25;8.02;;;23.80;34.70;;;;;;4771871;29;20047;-59
2021/10/26 07:46:00;;;;;;;11.32;7.80;;;23.80;34.60;;;;;;4776202;29;20058;-58
2021/10/26 07:48:27;;;;;;;10.50;8.13;;;23.90;34.60;;;;;;4766539;29;20498;-59
2021/10/26 07:50:59;;;;;;;8.73;7.45;;;23.90;34.60;;;;;;4763900;29;20055;-58
2021/10/26 07:53:27;;;;;;;9.13;7.20;;;23.90;34.50;;;;;;4775972;29;20063;-54
2021/10/26 07:55:57;;;;;;;10.25;8.30;;;23.90;34.50;;;;;;4774708;29;20111;-55
2021/10/26 07:58:25;;;;;;;9.38;7.53;;;23.90;34.50;;;;;;4771682;29;20047;-54
2021/10/26 08:00:54;;;;;;;9.32;7.97;;;24.00;34.60;;;;;;4770281;29;20063;-54
2021/10/26 08:03:21;;;;;;;10.57;8.13;;;24.00;34.60;;;;;;4775436;30;20078;-51
2021/10/26 08:05:50;;;;;;;10.90;7.95;;;24.10;34.60;;;;;;4778115;30;20521;-56
2021/10/26 08:08:17;;;;;;;9.20;7.55;;;24.10;34.60;;;;;;4773058;29;20490;-54
2021/10/26 08:10:46;;;;;;;12.43;8.55;;;24.10;34.60;;;;;;4772360;29;20074;-54
2021/10/26 08:13:15;;;;;;;10.10;8.43;;;24.10;35.10;;;;;;4775008;29;20055;-54
2021/10/26 08:15:42;;;;;;;10.70;7.90;;;24.10;34.50;;;;;;4777858;30;20043;-52
2021/10/26 08:18:10;;;;;;;8.70;7.65;;;24.10;34.50;;;;;;4768349;29;20411;-55
2021/10/26 08:20:38;;;;;;;10.25;7.80;;;24.20;34.50;;;;;;4765548;29;21008;-57
2021/10/26 08:23:05;;;;;;;9.18;7.55;;;24.20;34.50;;;;;;4770983;29;20048;-55
2021/10/26 08:25:36;;;;;;;9.32;7.47;;;24.20;34.40;;;;;;4777228;29;20395;-54
2021/10/26 08:28:08;;;;;;;11.25;7.55;;;24.20;34.40;;;;;;4775121;29;20484;-56
2021/10/26 08:30:53;;;;;;;10.43;7.15;;;24.30;34.50;;;;;;4761848;30;20051;-55
2021/10/26 08:33:38;;;;;;;10.00;6.63;;;24.30;34.50;;;;;;4776131;30;20054;-55
2021/10/26 08:36:05;;;;;;;12.02;7.28;;;24.20;34.40;;;;;;4776114;29;20073;-55
2021/10/26 08:38:33;;;;;;;10.35;7.15;;;24.30;34.50;;;;;;4774257;29;20132;-58
2021/10/26 08:41:06;;;;;;;14.20;7.53;;;24.30;34.50;;;;;;4775326;29;20158;-58
2021/10/26 08:43:34;;;;;;;8.05;7.00;;;24.30;34.50;;;;;;4778582;29;20497;-57
2021/10/26 08:46:08;;;;;;;9.30;7.13;;;24.30;34.50;;;;;;4775053;30;20055;-54
2021/10/26 08:48:40;;;;;;;12.20;8.15;;;24.30;34.50;;;;;;4768987;29;20523;-55
2021/10/26 08:51:08;;;;;;;10.27;6.75;;;24.30;34.50;;;;;;4771076;29;20078;-57
2021/10/26 08:53:35;;;;;;;7.72;6.28;;;24.30;34.50;;;;;;4776749;29;20058;-54
2021/10/26 08:56:04;;;;;;;10.43;7.13;;;24.30;34.60;;;;;;4778921;29;20047;-56
2021/10/26 08:58:32;;;;;;;10.55;6.07;;;24.30;34.60;;;;;;4774580;29;20055;-55
2021/10/26 09:01:01;;;;;;;7.95;6.32;;;24.30;34.60;;;;;;4771233;29;20059;-57
2021/10/26 09:03:35;;;;;;;10.38;6.97;;;24.30;34.60;;;;;;4773890;29;20043;-54
2021/10/26 09:06:08;;;;;;;8.10;6.22;;;24.30;34.50;;;;;;4775335;29;20055;-54
2021/10/26 09:08:36;;;;;;;7.97;5.53;;;24.40;34.60;;;;;;4765793;29;20553;-55
2021/10/26 09:16:51;;;;;;;9.30;6.00;;;24.40;34.50;;;;;;4777448;29;20065;-56
2021/10/26 09:19:26;;;;;;;7.20;6.50;;;24.40;34.50;;;;;;4763384;30;20599;-56
2021/10/26 09:22:03;;;;;;;7.97;6.00;;;24.40;34.40;;;;;;4775540;30;20122;-57
2021/10/26 09:24:31;;;;;;;6.80;5.72;;;24.50;34.40;;;;;;4773504;29;20502;-54
2021/10/26 09:27:01;;;;;;;7.90;5.65;;;24.50;34.50;;;;;;4774575;29;20059;-58
2021/10/26 09:29:48;;;;;;;7.95;6.00;;;24.50;34.40;;;;;;4757426;29;20502;-58
2021/10/26 09:32:31;;;;;;;9.23;5.85;;;24.50;34.30;;;;;;4758545;30;20055;-56
2021/10/26 09:35:01;;;;;;;9.13;5.60;;;24.50;34.30;;;;;;4774171;30;20055;-53
2021/10/26 09:37:33;;;;;;;;;;;24.60;34.30;;;;;;4770720;29;20559;-54
2021/10/26 09:40:01;;;;;;;7.30;5.20;;;24.60;34.30;;;;;;4758134;30;19932;-53
2021/10/26 09:42:44;;;;;;;9.15;5.60;;;24.60;34.20;;;;;;4770985;29;20534;-56
2021/10/26 09:45:24;;;;;;;9.02;5.65;;;24.70;34.20;;;;;;4773920;30;20079;-56
2021/10/26 09:47:53;;;;;;;;;;;24.70;34.10;;;;;;4768720;29;20070;-56
2021/10/26 09:50:21;;;;;;;9.25;5.20;;;24.70;34.00;;;;;;4762486;30;19934;-56
2021/10/26 09:52:50;;;;;;;6.25;4.50;;;24.80;34.00;;;;;;4772868;30;20051;-55
2021/10/26 09:55:24;;;;;;;6.72;5.10;;;24.80;33.90;;;;;;4772911;29;20479;-55
2021/10/26 09:58:03;;;;;;;5.13;4.60;;;24.80;33.90;;;;;;4762345;29;20055;-55
2021/10/26 10:00:33;;;;;;;5.97;4.28;;;24.80;33.90;;;;;;4763028;29;20116;-55
2021/10/26 10:03:15;;;;;;;5.75;4.50;;;24.80;33.80;;;;;;4770363;30;20057;-56
2021/10/26 10:05:50;;;;;;;7.10;4.95;;;24.80;33.80;;;;;;4772801;29;20059;-54
2021/10/26 10:08:34;;;;;;;5.82;4.57;;;24.80;33.80;;;;;;4762778;29;20147;-57
2021/10/26 10:11:13;;;;;;;5.45;4.35;;;24.90;34.10;;;;;;4768741;29;20140;-53
2021/10/26 10:13:47;;;;;;;4.95;4.45;;;24.90;34.30;;;;;;4775719;30;20051;-55
2021/10/26 10:16:16;;;;;;;7.25;4.82;;;24.90;34.40;;;;;;4777702;29;20433;-55
2021/10/26 10:18:46;;;;;;;5.68;4.38;;;24.90;34.40;;;;;;4763863;29;20098;-56
2021/10/26 10:21:16;;;;;;;5.20;4.13;;;24.90;34.40;;;;;;4770481;29;20055;-59
2021/10/26 10:23:48;;;;;;;4.47;4.00;;;25.00;34.50;;;;;;4775332;30;20076;-58
2021/10/26 10:26:16;;;;;;;6.47;3.85;;;25.00;34.50;;;;;;4770586;30;20502;-57
2021/10/26 10:28:47;;;;;;;5.60;3.97;;;25.00;34.40;;;;;;4761326;29;20055;-56
2021/10/26 10:31:20;;;;;;;6.13;4.95;;;25.10;34.40;;;;;;4768466;29;20055;-59
2021/10/26 10:33:47;;;;;;;6.20;4.28;;;25.10;34.40;;;;;;4776109;30;20094;-58
2021/10/26 10:36:17;;;;;;;5.25;3.97;;;25.10;34.30;;;;;;4772662;29;20059;-58
2021/10/26 10:38:45;;;;;;;5.30;4.80;;;25.10;34.30;;;;;;4762147;29;20449;-58
2021/10/26 10:41:34;;;;;;;5.03;3.90;;;25.10;34.20;;;;;;4770250;29;20414;-54
2021/10/26 10:44:35;;;;;;;6.88;4.15;;;25.20;34.20;;;;;;4773521;30;20509;-56
2021/10/26 10:47:03;;;;;;;6.65;4.40;;;25.20;34.10;;;;;;4773229;30;20051;-56
2021/10/26 10:49:47;;;;;;;6.28;4.38;;;25.30;34.20;;;;;;4760036;29;20055;-54
2021/10/26 10:52:18;;;;;;;;;;;25.30;34.10;;;;;;4773408;30;20563;-52
2021/10/26 10:54:54;;;;;;;4.80;3.80;;;25.30;34.10;;;;;;4769092;30;19933;-50
2021/10/26 10:57:36;;;;;;;4.57;3.97;;;25.30;34.00;;;;;;4773826;30;20078;-53
2021/10/26 11:00:27;;;;;;;4.13;3.75;;;25.30;34.00;;;;;;4756505;29;21237;-53
2021/10/26 11:02:57;;;;;;;6.28;4.63;;;25.40;34.00;;;;;;4762794;30;20058;-53
2021/10/26 11:05:42;;;;;;;6.85;3.70;;;25.40;34.00;;;;;;4770907;30;20078;-53
2021/10/26 11:08:11;;;;;;;5.35;4.35;;;25.40;33.90;;;;;;4764365;29;20502;-55
2021/10/26 11:10:59;;;;;;;4.47;3.97;;;25.40;33.90;;;;;;4761315;29;20062;-55
2021/10/26 11:13:29;;;;;;;5.30;4.13;;;25.50;33.90;;;;;;4772098;30;20525;-61
2021/10/26 11:15:59;;;;;;;6.57;4.30;;;25.50;33.90;;;;;;4773079;29;20059;-57
2021/10/26 11:18:48;;;;;;;5.68;4.13;;;25.50;33.70;;;;;;4764276;29;20044;-55
2021/10/26 11:21:35;;;;;;;7.20;4.22;;;25.50;33.70;;;;;;4763966;29;20461;-54
2021/10/26 11:24:06;;;;;;;4.65;3.80;;;25.60;33.80;;;;;;4772422;30;20132;-56
2021/10/26 11:26:40;;;;;;;8.48;4.13;;;25.60;33.70;;;;;;4770058;29;20502;-58
2021/10/26 11:29:10;;;;;;;4.95;4.32;;;25.60;33.60;;;;;;4760614;29;20475;-56
2021/10/26 11:31:42;;;;;;;;;;;25.60;33.60;;;;;;4750313;29;20062;-55
2021/10/26 11:34:18;;;;;;;10.00;4.40;;;25.60;33.50;;;;;;4778024;29;19933;-57
2021/10/26 11:36:45;;;;;;;5.10;4.32;;;25.70;33.50;;;;;;4779306;29;20079;-56
2021/10/26 11:39:16;;;;;;;6.95;4.13;;;25.70;33.40;;;;;;4762653;29;20152;-58
2021/10/26 11:41:44;;;;;;;5.88;4.05;;;25.70;33.40;;;;;;4768830;29;20502;-57
2021/10/26 11:44:15;;;;;;;5.72;4.07;;;25.70;33.30;;;;;;4776356;29;20479;-58
2021/10/26 11:46:48;;;;;;;5.35;4.35;;;25.70;33.20;;;;;;4774324;29;20469;-57
2021/10/26 11:49:25;;;;;;;6.25;4.40;;;25.70;33.30;;;;;;4757855;29;20055;-57
2021/10/26 11:52:05;;;;;;;8.73;4.78;;;25.80;33.30;;;;;;4756631;29;20056;-59
2021/10/26 11:54:43;;;;;;;4.43;3.65;;;25.80;33.10;;;;;;4777889;30;20047;-59
2021/10/26 11:57:12;;;;;;;4.47;3.97;;;25.80;33.00;;;;;;4776113;30;20128;-58
2021/10/26 11:59:42;;;;;;;6.85;4.68;;;25.80;32.80;;;;;;4756596;29;20084;-58
2021/10/26 12:02:20;;;;;;;8.00;4.03;;;25.80;32.70;;;;;;4772654;29;20058;-56
2021/10/26 12:05:16;;;;;;;5.45;3.90;;;25.70;32.70;;;;;;4774665;30;20083;-56
2021/10/26 12:07:49;;;;;;;5.25;4.07;;;25.70;32.70;;;;;;4769269;29;20059;-58
2021/10/26 12:10:20;;;;;;;6.30;4.55;;;25.80;32.80;;;;;;4758302;30;20063;-57
2021/10/26 12:12:48;;;;;;;5.65;4.25;;;25.80;32.80;;;;;;4772589;30;20529;-58
2021/10/26 12:15:15;;;;;;;7.03;4.47;;;25.80;32.80;;;;;;4773203;29;20047;-54
2021/10/26 12:17:43;;;;;;;4.60;4.13;;;25.80;32.70;;;;;;4773678;29;20066;-56
2021/10/26 12:20:24;;;;;;;4.60;4.20;;;25.80;32.80;;;;;;4756832;29;20570;-57
2021/10/26 12:22:54;;;;;;;5.50;4.57;;;25.80;32.70;;;;;;4775467;30;20213;-53
2021/10/26 12:25:24;;;;;;;;;;;25.80;32.80;;;;;;4777657;30;20066;-52
2021/10/26 12:28:03;;;;;;;6.68;4.10;;;25.80;32.80;;;;;;4763772;29;19937;-57
2021/10/26 12:30:36;;;;;;;6.93;4.67;;;25.80;32.90;;;;;;4763080;30;20178;-56
2021/10/26 12:33:23;;;;;;;4.72;4.13;;;25.80;32.70;;;;;;4777993;29;20808;-58
2021/10/26 12:35:59;;;;;;;6.72;4.22;;;25.90;32.80;;;;;;4774096;29;20090;-57
2021/10/26 12:38:36;;;;;;;4.32;3.83;;;25.80;32.70;;;;;;4763705;29;20047;-56
2021/10/26 12:41:13;;;;;;;4.65;4.25;;;25.90;33.30;;;;;;4782711;29;20520;-56
2021/10/26 12:43:58;;;;;;;5.10;4.10;;;25.90;32.50;;;;;;4777739;30;20047;-58
2021/10/26 12:46:26;;;;;;;8.73;4.47;;;25.90;32.40;;;;;;4773325;30;20059;-57
2021/10/26 12:49:13;;;;;;;4.88;4.22;;;25.90;32.30;;;;;;4762939;29;20048;-58
2021/10/26 12:51:42;;;;;;;5.15;4.15;;;25.90;32.30;;;;;;4768895;29;20594;-58
2021/10/26 12:54:19;;;;;;;4.45;4.05;;;25.90;32.10;;;;;;4775201;30;20213;-55
2021/10/26 12:56:54;;;;;;;5.00;4.28;;;25.90;32.00;;;;;;4773382;29;20055;-57
2021/10/26 12:59:26;;;;;;;5.70;4.80;;;25.90;32.00;;;;;;4762604;29;20059;-57
2021/10/26 13:02:05;;;;;;;5.15;4.50;;;25.90;31.90;;;;;;4769817;30;20173;-55
2021/10/26 13:04:38;;;;;;;6.95;3.83;;;25.90;31.90;;;;;;4775815;30;20490;-55